createdAt,value
2017-10-27T00:00:35.408Z,101213.71
2017-10-27T00:03:03.045Z,101216.27
2017-10-27T00:05:30.678Z,101215.97
2017-10-27T00:07:58.341Z,101206.88
2017-10-27T00:10:25.942Z,101209.28
2017-10-27T00:12:53.588Z,101210.11
2017-10-27T00:15:21.194Z,101216.53
2017-10-27T00:17:48.829Z,101209.52
2017-10-27T00:20:16.451Z,101208.14
2017-10-27T00:22:44.061Z,101198.45
2017-10-27T00:25:11.691Z,101196.19
2017-10-27T00:27:39.281Z,101193.95
2017-10-27T00:30:06.920Z,101188.14
2017-10-27T00:32:34.514Z,101182.03
2017-10-27T00:35:02.130Z,101189.60
2017-10-27T00:37:29.771Z,101189.33
2017-10-27T00:39:57.385Z,101192.25
2017-10-27T00:42:25.038Z,101189.09
2017-10-27T00:44:52.674Z,101181.61
2017-10-27T00:47:20.256Z,101177.53
2017-10-27T00:49:47.872Z,101174.32
2017-10-27T00:52:15.470Z,101173.58
2017-10-27T00:54:43.113Z,101172.34
2017-10-27T00:57:10.720Z,101163.97
2017-10-27T00:59:38.317Z,101155.58
2017-10-27T01:02:05.950Z,101157.78
2017-10-27T01:04:33.554Z,101155.09
2017-10-27T01:07:01.274Z,101154.17
2017-10-27T01:09:28.889Z,101150.95
2017-10-27T01:11:56.473Z,101143.22
2017-10-27T01:14:24.437Z,101140.17
2017-10-27T01:16:52.049Z,101140.33
2017-10-27T01:19:19.702Z,101142.49
2017-10-27T01:21:47.289Z,101142.49
2017-10-27T01:24:14.892Z,101139.48
2017-10-27T01:26:42.509Z,101137.52
2017-10-27T01:29:10.101Z,101136.91
2017-10-27T01:31:37.737Z,101128.42
2017-10-27T01:34:05.344Z,101126.62
2017-10-27T01:36:32.950Z,101123.25
2017-10-27T01:39:00.625Z,101128.12
2017-10-27T01:41:28.209Z,101118.40
2017-10-27T01:43:56.094Z,101118.31
2017-10-27T01:46:23.682Z,101116.29
2017-10-27T01:48:51.277Z,101109.30
2017-10-27T01:51:18.901Z,101103.84
2017-10-27T01:53:46.489Z,101096.72
2017-10-27T01:56:14.089Z,101096.84
2017-10-27T01:58:41.721Z,101089.84
2017-10-27T02:01:09.331Z,101091.68
2017-10-27T02:03:36.927Z,101092.45
2017-10-27T02:06:04.562Z,101097.06
2017-10-27T02:08:32.154Z,101085.95
2017-10-27T02:10:59.746Z,101077.17
2017-10-27T02:13:27.390Z,101068.70
2017-10-27T02:15:55.026Z,101070.98
2017-10-27T02:18:22.677Z,101070.38
2017-10-27T02:20:50.284Z,101065.50
2017-10-27T02:23:17.897Z,101067.20
2017-10-27T02:25:45.949Z,101067.63
2017-10-27T02:28:13.549Z,101057.48
2017-10-27T02:30:41.198Z,101058.64
2017-10-27T02:33:08.782Z,101052.66
2017-10-27T02:35:36.410Z,101054.66
2017-10-27T02:38:04.029Z,101053.97
2017-10-27T02:40:31.638Z,101059.50
2017-10-27T02:42:59.277Z,101058.94
2017-10-27T02:45:27.167Z,101058.67
2017-10-27T02:47:54.750Z,101055.03
2017-10-27T02:50:22.395Z,101056.64
2017-10-27T02:52:49.977Z,101048.23
2017-10-27T02:55:17.622Z,101036.69
2017-10-27T02:57:45.208Z,101034.22
2017-10-27T03:00:12.835Z,101025.62
2017-10-27T03:02:40.499Z,101027.13
2017-10-27T03:05:08.096Z,101029.19
2017-10-27T03:07:35.781Z,101015.23
2017-10-27T03:10:03.383Z,101020.27
2017-10-27T03:12:30.972Z,101013.42
2017-10-27T03:14:58.598Z,101013.39
2017-10-27T03:17:26.191Z,101006.55
2017-10-27T03:19:53.877Z,100993.91
2017-10-27T03:22:21.476Z,100995.07
2017-10-27T03:24:49.073Z,100995.31
2017-10-27T03:27:16.932Z,100989.84
2017-10-27T03:29:44.555Z,100991.92
2017-10-27T03:32:12.556Z,100999.59
2017-10-27T03:34:40.158Z,100994.06
2017-10-27T03:37:07.784Z,100994.48
2017-10-27T03:39:35.738Z,100991.80
2017-10-27T03:42:03.352Z,100991.92
2017-10-27T03:44:30.971Z,100998.11
2017-10-27T03:46:58.613Z,100986.89
2017-10-27T03:49:26.201Z,100987.79
2017-10-27T03:51:53.825Z,100985.87
2017-10-27T03:54:21.430Z,100985.38
2017-10-27T03:56:49.385Z,100989.33
2017-10-27T03:59:16.993Z,100985.79
2017-10-27T04:01:44.618Z,100985.87
2017-10-27T04:04:12.577Z,100980.11
2017-10-27T04:06:40.165Z,100985.73
2017-10-27T04:09:07.777Z,100983.53
2017-10-27T04:11:35.365Z,100982.79
2017-10-27T04:14:02.956Z,100975.53
2017-10-27T04:16:30.568Z,100972.91
2017-10-27T04:18:58.180Z,100975.09
2017-10-27T04:21:25.808Z,100977.17
2017-10-27T04:23:53.673Z,100971.34
2017-10-27T04:26:21.286Z,100976.45
2017-10-27T04:28:49.212Z,100971.58
2017-10-27T04:31:16.789Z,100974.94
2017-10-27T04:33:44.737Z,100975.50
2017-10-27T04:36:12.605Z,100972.56
2017-10-27T04:38:40.473Z,100969.23
2017-10-27T04:41:08.085Z,100972.55
2017-10-27T04:43:36.009Z,100971.25
2017-10-27T04:46:03.685Z,100969.64
2017-10-27T04:48:31.273Z,100964.36
2017-10-27T04:50:58.870Z,100969.96
2017-10-27T04:53:26.485Z,100975.23
2017-10-27T04:55:54.075Z,100982.50
2017-10-27T04:58:21.702Z,100981.48
2017-10-27T05:00:49.551Z,100982.35
2017-10-27T05:03:17.138Z,100968.87
2017-10-27T05:05:44.752Z,100974.90
2017-10-27T05:08:12.640Z,100972.94
2017-10-27T05:10:40.320Z,100969.17
2017-10-27T05:13:07.900Z,100956.46
2017-10-27T05:15:35.497Z,100962.51
2017-10-27T05:18:08.642Z,100961.90
2017-10-27T05:20:41.736Z,100961.50
2017-10-27T05:23:15.226Z,100958.30
2017-10-27T05:25:43.566Z,100957.34
2017-10-27T05:28:11.202Z,100950.96
2017-10-27T05:30:39.219Z,100957.80
2017-10-27T05:33:06.865Z,100959.22
2017-10-27T05:35:34.484Z,100955.30
2017-10-27T05:38:02.090Z,100957.30
2017-10-27T05:40:29.732Z,100954.80
2017-10-27T05:42:57.319Z,100962.89
2017-10-27T05:45:24.925Z,100955.96
2017-10-27T05:47:52.615Z,100964.14
2017-10-27T05:50:20.206Z,100963.98
2017-10-27T05:52:48.692Z,100960.84
2017-10-27T05:55:16.308Z,100968.52
2017-10-27T05:57:43.910Z,100970.38
2017-10-27T06:00:11.535Z,100974.52
2017-10-27T06:02:39.128Z,100968.67
2017-10-27T06:05:06.799Z,100974.00
2017-10-27T06:07:34.392Z,100966.81
2017-10-27T06:10:02.250Z,100974.45
2017-10-27T06:12:29.876Z,100980.91
2017-10-27T06:14:57.709Z,100973.42
2017-10-27T06:17:25.335Z,100977.95
2017-10-27T06:19:52.937Z,100977.02
2017-10-27T06:22:20.523Z,100975.44
2017-10-27T06:24:48.140Z,100977.28
2017-10-27T06:27:16.055Z,100978.44
2017-10-27T06:29:43.678Z,100984.19
2017-10-27T06:32:11.427Z,100980.55
2017-10-27T06:34:39.025Z,100987.72
2017-10-27T06:37:07.221Z,100984.38
2017-10-27T06:39:34.822Z,100978.88
2017-10-27T06:42:02.473Z,100991.98
2017-10-27T06:44:30.064Z,100982.31
2017-10-27T06:46:57.661Z,100983.23
2017-10-27T06:49:25.272Z,100995.46
2017-10-27T06:51:52.860Z,101000.72
2017-10-27T06:54:20.517Z,100992.50
2017-10-27T06:56:48.117Z,100986.76
2017-10-27T06:59:15.737Z,100987.99
2017-10-27T07:01:43.423Z,100996.73
2017-10-27T07:04:11.008Z,101000.03
2017-10-27T07:06:38.821Z,100996.26
2017-10-27T07:09:06.467Z,100996.52
2017-10-27T07:11:34.053Z,100996.89
2017-10-27T07:14:01.702Z,100999.44
2017-10-27T07:16:29.657Z,100998.70
2017-10-27T07:18:57.325Z,100999.99
2017-10-27T07:21:24.938Z,101007.21
2017-10-27T07:23:52.562Z,101003.36
2017-10-27T07:26:20.168Z,100999.95
2017-10-27T07:28:47.762Z,101003.13
2017-10-27T07:31:15.377Z,101006.72
2017-10-27T07:33:42.991Z,101001.88
2017-10-27T07:36:10.613Z,100999.77
2017-10-27T07:38:38.250Z,101007.94
2017-10-27T07:41:05.850Z,101012.28
2017-10-27T07:43:33.500Z,101017.66
2017-10-27T07:46:01.092Z,101014.72
2017-10-27T07:48:28.968Z,101008.67
2017-10-27T07:50:56.576Z,101013.83
2017-10-27T07:53:24.174Z,101013.92
2017-10-27T07:55:51.828Z,101018.09
2017-10-27T07:58:19.447Z,101017.77
2017-10-27T08:00:47.039Z,101020.09
2017-10-27T08:03:14.950Z,101020.44
2017-10-27T08:05:42.546Z,101016.84
2017-10-27T08:08:10.199Z,101016.16
2017-10-27T08:10:37.788Z,101018.23
2017-10-27T08:13:05.381Z,101018.36
2017-10-27T08:15:33.010Z,101015.17
2017-10-27T08:18:00.621Z,101026.72
2017-10-27T08:20:28.264Z,101018.77
2017-10-27T08:22:55.857Z,101021.18
2017-10-27T08:25:23.471Z,101027.37
2017-10-27T08:27:51.084Z,101026.03
2017-10-27T08:30:18.685Z,101015.92
2017-10-27T08:32:46.279Z,101021.52
2017-10-27T08:35:13.941Z,101016.72
2017-10-27T08:37:41.528Z,101024.69
2017-10-27T08:40:09.115Z,101027.02
2017-10-27T08:42:36.745Z,101019.65
2017-10-27T08:45:04.349Z,101029.26
2017-10-27T08:47:31.942Z,101028.16
2017-10-27T08:49:59.858Z,101024.95
2017-10-27T08:52:27.456Z,101023.29
2017-10-27T08:54:55.112Z,101015.56
2017-10-27T08:57:22.691Z,101014.03
2017-10-27T08:59:50.297Z,101019.70
2017-10-27T09:02:17.930Z,101016.81
2017-10-27T09:04:45.561Z,101019.92
2017-10-27T09:07:13.249Z,101018.20
2017-10-27T09:09:40.882Z,101025.74
2017-10-27T09:12:08.473Z,101020.70
2017-10-27T09:14:36.129Z,101020.37
2017-10-27T09:17:03.788Z,101029.02
2017-10-27T09:19:31.425Z,101027.52
2017-10-27T09:21:59.010Z,101035.70
2017-10-27T09:24:26.610Z,101031.33
2017-10-27T09:26:54.237Z,101031.52
2017-10-27T09:29:21.856Z,101039.19
2017-10-27T09:31:49.524Z,101040.49
2017-10-27T09:34:17.122Z,101037.48
2017-10-27T09:36:44.713Z,101044.77
2017-10-27T09:39:12.410Z,101047.22
2017-10-27T09:41:40.001Z,101051.23
2017-10-27T09:44:07.629Z,101051.23
2017-10-27T09:46:35.267Z,101054.97
2017-10-27T09:49:02.850Z,101073.66
2017-10-27T09:51:30.495Z,101062.83
2017-10-27T09:53:58.093Z,101062.41
2017-10-27T09:56:25.729Z,101063.02
2017-10-27T09:58:53.335Z,101057.97
2017-10-27T10:01:20.924Z,101070.02
2017-10-27T10:03:48.554Z,101078.65
2017-10-27T10:06:16.157Z,101082.95
2017-10-27T10:08:43.803Z,101079.14
2017-10-27T10:11:11.416Z,101086.67
2017-10-27T10:13:39.365Z,101083.66
2017-10-27T10:16:07.018Z,101097.68
2017-10-27T10:18:34.679Z,101093.96
2017-10-27T10:21:02.329Z,101098.34
2017-10-27T10:23:29.927Z,101098.84
2017-10-27T10:25:57.514Z,101104.80
2017-10-27T10:28:25.186Z,101105.14
2017-10-27T10:30:52.783Z,101106.45
2017-10-27T10:33:20.468Z,101123.72
2017-10-27T10:35:48.070Z,101137.63
2017-10-27T10:38:15.669Z,101129.64
2017-10-27T10:40:43.296Z,101142.98
2017-10-27T10:43:10.890Z,101144.39
2017-10-27T10:45:38.513Z,101151.92
2017-10-27T10:48:06.124Z,101158.98
2017-10-27T10:50:33.716Z,101162.13
2017-10-27T10:53:01.658Z,101163.97
2017-10-27T10:55:29.257Z,101157.09
2017-10-27T10:57:56.887Z,101154.45
2017-10-27T11:00:24.472Z,101163.92
2017-10-27T11:02:52.120Z,101161.15
2017-10-27T11:05:19.739Z,101162.67
2017-10-27T11:07:47.329Z,101173.26
2017-10-27T11:10:14.958Z,101168.23
2017-10-27T11:12:42.552Z,101168.36
2017-10-27T11:15:10.429Z,101156.47
2017-10-27T11:17:38.091Z,101160.30
2017-10-27T11:20:05.682Z,101162.37
2017-10-27T11:22:33.313Z,101164.55
2017-10-27T11:25:00.896Z,101173.20
2017-10-27T11:27:28.535Z,101178.11
2017-10-27T11:29:56.164Z,101175.55
2017-10-27T11:32:23.774Z,101176.97
2017-10-27T11:34:51.444Z,101176.34
2017-10-27T11:37:19.056Z,101183.22
2017-10-27T11:39:46.653Z,101193.03
2017-10-27T11:42:14.260Z,101179.48
2017-10-27T11:44:41.867Z,101188.41
2017-10-27T11:47:09.839Z,101193.75
2017-10-27T11:49:37.449Z,101202.18
2017-10-27T11:52:05.058Z,101213.31
2017-10-27T11:54:32.691Z,101207.52
2017-10-27T11:57:00.279Z,101216.94
2017-10-27T11:59:27.914Z,101229.31
2017-10-27T12:01:55.922Z,101233.14
2017-10-27T12:04:23.545Z,101234.72
2017-10-27T12:06:51.214Z,101240.37
2017-10-27T12:09:18.861Z,101238.19
2017-10-27T12:11:46.509Z,101245.92
2017-10-27T12:14:14.146Z,101251.00
2017-10-27T12:16:41.886Z,101258.34
2017-10-27T12:19:09.560Z,101262.29
2017-10-27T12:21:37.171Z,101259.61
2017-10-27T12:24:04.797Z,101272.13
2017-10-27T12:26:32.388Z,101271.23
2017-10-27T12:29:00.053Z,101272.98
2017-10-27T12:31:27.729Z,101273.84
2017-10-27T12:33:56.030Z,101280.73
2017-10-27T12:36:23.769Z,101285.98
2017-10-27T12:38:51.386Z,101290.03
2017-10-27T12:41:19.011Z,101291.76
2017-10-27T12:43:46.619Z,101289.92
2017-10-27T12:46:14.209Z,101297.58
2017-10-27T12:48:42.078Z,101297.33
2017-10-27T12:51:09.708Z,101297.75
2017-10-27T12:53:37.401Z,101300.53
2017-10-27T12:56:05.039Z,101301.46
2017-10-27T12:58:32.643Z,101308.46
2017-10-27T13:01:00.304Z,101312.21
2017-10-27T13:03:27.907Z,101316.75
2017-10-27T13:05:55.570Z,101314.91
2017-10-27T13:08:23.209Z,101334.84
2017-10-27T13:10:50.790Z,101342.69
2017-10-27T13:13:18.419Z,101346.50
2017-10-27T13:15:46.137Z,101343.89
2017-10-27T13:18:13.801Z,101348.25
2017-10-27T13:20:41.581Z,101361.05
2017-10-27T13:23:09.193Z,101362.42
2017-10-27T13:25:36.842Z,101360.58
2017-10-27T13:28:04.424Z,101370.77
2017-10-27T13:30:32.071Z,101365.91
2017-10-27T13:32:59.690Z,101379.53
2017-10-27T13:35:27.297Z,101383.78
2017-10-27T13:37:54.936Z,101390.88
2017-10-27T13:40:22.611Z,101393.59
2017-10-27T13:42:50.237Z,101398.80
2017-10-27T13:45:17.935Z,101404.09
2017-10-27T13:47:45.567Z,101409.27
2017-10-27T13:50:13.186Z,101408.54
2017-10-27T13:52:40.836Z,101413.36
2017-10-27T13:55:09.416Z,101422.55
2017-10-27T13:57:37.046Z,101414.69
2017-10-27T14:00:04.655Z,101418.08
2017-10-27T14:02:32.274Z,101420.90
2017-10-27T14:04:59.856Z,101422.74
2017-10-27T14:07:27.494Z,101430.42
2017-10-27T14:09:55.113Z,101435.66
2017-10-27T14:12:22.984Z,101444.60
2017-10-27T14:14:50.616Z,101443.58
2017-10-27T14:17:18.229Z,101460.97
2017-10-27T14:19:46.177Z,101458.25
2017-10-27T14:22:13.803Z,101464.84
2017-10-27T14:24:41.422Z,101471.28
2017-10-27T14:27:09.288Z,101469.48
2017-10-27T14:29:36.907Z,101468.29
2017-10-27T14:32:04.561Z,101466.34
2017-10-27T14:34:32.168Z,101470.69
2017-10-27T14:36:59.766Z,101471.33
2017-10-27T14:39:27.399Z,101481.87
2017-10-27T14:41:55.361Z,101483.45
2017-10-27T14:44:23.115Z,101483.30
2017-10-27T14:46:50.775Z,101492.78
2017-10-27T14:49:20.969Z,101487.12
2017-10-27T14:51:48.654Z,101482.02
2017-10-27T14:54:16.254Z,101495.02
2017-10-27T14:56:43.903Z,101496.09
2017-10-27T14:59:11.526Z,101500.28
2017-10-27T15:01:39.524Z,101505.39
2017-10-27T15:04:07.140Z,101510.41
2017-10-27T15:06:34.747Z,101514.42
2017-10-27T15:09:02.710Z,101518.30
2017-10-27T15:11:30.302Z,101513.44
2017-10-27T15:13:57.913Z,101506.66
2017-10-27T15:16:25.544Z,101517.98
2017-10-27T15:18:53.133Z,101512.30
2017-10-27T15:21:20.756Z,101522.08
2017-10-27T15:23:48.381Z,101521.68
2017-10-27T15:26:15.984Z,101532.19
2017-10-27T15:28:43.625Z,101537.31
2017-10-27T15:31:11.237Z,101542.58
2017-10-27T15:33:38.837Z,101549.03
2017-10-27T15:36:06.802Z,101566.07
2017-10-27T15:38:34.398Z,101568.84
2017-10-27T15:41:02.019Z,101576.45
2017-10-27T15:43:29.636Z,101573.72
2017-10-27T15:45:57.236Z,101583.91
2017-10-27T15:48:24.879Z,101587.32
2017-10-27T15:50:52.460Z,101590.76
2017-10-27T15:53:20.343Z,101602.89
2017-10-27T15:55:48.313Z,101603.91
2017-10-27T15:58:15.995Z,101606.48
2017-10-27T16:00:43.668Z,101615.93
2017-10-27T16:03:11.295Z,101619.11
2017-10-27T16:05:38.890Z,101620.44
2017-10-27T16:08:06.829Z,101631.48
2017-10-27T16:10:34.448Z,101637.09
2017-10-27T16:13:02.125Z,101638.73
2017-10-27T16:15:29.750Z,101642.75
2017-10-27T16:17:57.408Z,101646.83
2017-10-27T16:20:25.046Z,101652.87
2017-10-27T16:22:52.632Z,101645.19
2017-10-27T16:25:20.280Z,101646.44
2017-10-27T16:27:47.904Z,101651.97
2017-10-27T16:30:15.540Z,101645.50
2017-10-27T16:32:43.146Z,101654.78
2017-10-27T16:35:10.747Z,101666.22
2017-10-27T16:37:38.381Z,101655.52
2017-10-27T16:40:05.966Z,101659.61
2017-10-27T16:42:33.569Z,101670.25
2017-10-27T16:45:01.191Z,101670.98
2017-10-27T16:47:28.781Z,101658.38
2017-10-27T16:49:56.417Z,101660.77
2017-10-27T16:52:24.039Z,101663.65
2017-10-27T16:54:51.901Z,101675.89
2017-10-27T16:57:19.559Z,101686.38
2017-10-27T16:59:47.172Z,101692.44
2017-10-27T17:02:15.109Z,101685.75
2017-10-27T17:04:42.720Z,101687.35
2017-10-27T17:07:10.324Z,101684.70
2017-10-27T17:09:37.953Z,101690.26
2017-10-27T17:12:05.614Z,101699.47
2017-10-27T17:14:33.247Z,101697.49
2017-10-27T17:17:00.857Z,101700.64
2017-10-27T17:19:28.449Z,101708.83
2017-10-27T17:21:56.097Z,101708.91
2017-10-27T17:24:23.707Z,101710.58
2017-10-27T17:26:51.367Z,101708.25
2017-10-27T17:29:18.957Z,101716.69
2017-10-27T17:31:46.561Z,101723.88
2017-10-27T17:34:14.178Z,101717.84
2017-10-27T17:36:41.817Z,101722.53
2017-10-27T17:39:09.614Z,101721.54
2017-10-27T17:41:37.254Z,101724.79
2017-10-27T17:44:04.882Z,101726.47
2017-10-27T17:46:32.505Z,101729.91
2017-10-27T17:49:00.098Z,101725.58
2017-10-27T17:51:27.719Z,101727.73
2017-10-27T17:53:55.548Z,101727.23
2017-10-27T17:56:23.136Z,101734.80
2017-10-27T17:58:50.753Z,101723.45
2017-10-27T18:01:18.333Z,101728.05
2017-10-27T18:03:45.961Z,101725.80
2017-10-27T18:06:13.555Z,101726.14
2017-10-27T18:08:41.173Z,101729.66
2017-10-27T18:11:08.793Z,101731.52
2017-10-27T18:13:36.378Z,101733.93
2017-10-27T18:16:04.022Z,101735.77
2017-10-27T18:18:31.645Z,101736.77
2017-10-27T18:20:59.236Z,101743.29
2017-10-27T18:23:26.879Z,101742.86
2017-10-27T18:25:54.507Z,101745.47
2017-10-27T18:28:22.404Z,101737.98
2017-10-27T18:30:50.002Z,101742.52
2017-10-27T18:33:17.618Z,101739.96
2017-10-27T18:35:45.246Z,101732.08
2017-10-27T18:38:12.860Z,101736.55
2017-10-27T18:40:40.539Z,101732.03
2017-10-27T18:43:08.170Z,101732.07
2017-10-27T18:45:35.762Z,101734.74
2017-10-27T18:48:03.384Z,101737.83
2017-10-27T18:50:30.969Z,101739.32
2017-10-27T18:52:58.597Z,101742.34
2017-10-27T18:55:26.216Z,101746.00
2017-10-27T18:57:54.156Z,101745.34
2017-10-27T19:00:21.775Z,101750.19
2017-10-27T19:02:49.379Z,101748.64
2017-10-27T19:05:17.018Z,101753.30
2017-10-27T19:07:44.620Z,101752.55
2017-10-27T19:10:12.211Z,101753.31
2017-10-27T19:12:39.852Z,101757.59
2017-10-27T19:15:07.451Z,101755.34
2017-10-27T19:17:35.086Z,101757.59
2017-10-27T19:20:02.696Z,101759.42
2017-10-27T19:22:30.305Z,101758.58
2017-10-27T19:24:57.934Z,101757.89
2017-10-27T19:27:25.533Z,101756.33
2017-10-27T19:29:53.167Z,101756.94
2017-10-27T19:32:20.784Z,101749.65
2017-10-27T19:34:48.374Z,101747.97
2017-10-27T19:37:16.350Z,101747.42
2017-10-27T19:39:43.965Z,101744.16
2017-10-27T19:42:11.600Z,101747.06
2017-10-27T19:44:39.194Z,101746.07
2017-10-27T19:47:06.795Z,101742.83
2017-10-27T19:49:34.770Z,101743.47
2017-10-27T19:52:02.649Z,101743.20
2017-10-27T19:54:30.614Z,101751.63
2017-10-27T19:56:58.218Z,101738.98
2017-10-27T19:59:25.814Z,101732.85
2017-10-27T20:01:53.437Z,101726.25
2017-10-27T20:04:21.039Z,101721.69
2017-10-27T20:06:48.681Z,101722.27
2017-10-27T20:09:16.282Z,101722.19
2017-10-27T20:11:43.905Z,101724.22
2017-10-27T20:14:11.561Z,101725.34
2017-10-27T20:16:39.174Z,101721.20
2017-10-27T20:19:06.806Z,101722.20
2017-10-27T20:21:34.704Z,101715.72
2017-10-27T20:24:02.336Z,101717.63
2017-10-27T20:26:29.976Z,101715.45
2017-10-27T20:28:57.568Z,101714.71
2017-10-27T20:31:25.246Z,101716.45
2017-10-27T20:33:52.855Z,101718.19
2017-10-27T20:36:20.458Z,101719.53
2017-10-27T20:38:48.119Z,101712.75
2017-10-27T20:41:16.101Z,101708.78
2017-10-27T20:43:43.728Z,101707.87
2017-10-27T20:46:11.319Z,101697.95
2017-10-27T20:48:39.197Z,101693.46
2017-10-27T20:51:06.837Z,101690.42
2017-10-27T20:53:35.268Z,101693.78
2017-10-27T20:56:02.890Z,101691.71
2017-10-27T20:58:30.770Z,101703.86
2017-10-27T21:00:58.752Z,101698.36
2017-10-27T21:03:26.424Z,101704.98
2017-10-27T21:05:54.009Z,101706.88
2017-10-27T21:08:21.670Z,101711.92
2017-10-27T21:10:49.273Z,101710.94
2017-10-27T21:13:16.852Z,101709.55
2017-10-27T21:15:44.457Z,101706.73
2017-10-27T21:18:12.055Z,101710.41
2017-10-27T21:20:39.672Z,101716.49
2017-10-27T21:23:07.279Z,101711.25
2017-10-27T21:25:34.861Z,101707.98
2017-10-27T21:28:02.493Z,101708.02
2017-10-27T21:30:30.105Z,101708.43
2017-10-27T21:32:57.796Z,101708.72
2017-10-27T21:35:25.399Z,101711.44
2017-10-27T21:37:53.020Z,101711.66
2017-10-27T21:40:20.649Z,101710.41
2017-10-27T21:42:48.246Z,101699.79
2017-10-27T21:45:15.862Z,101705.89
2017-10-27T21:47:43.453Z,101706.23
2017-10-27T21:50:11.392Z,101697.25
2017-10-27T21:52:39.387Z,101698.59
2017-10-27T21:55:06.985Z,101689.02
2017-10-27T21:57:34.587Z,101681.06
2017-10-27T22:00:02.203Z,101680.47
2017-10-27T22:02:30.218Z,101684.45
2017-10-27T22:04:57.828Z,101672.03
2017-10-27T22:07:25.466Z,101672.16
2017-10-27T22:09:53.410Z,101671.33
2017-10-27T22:12:21.025Z,101680.81
2017-10-27T22:14:48.661Z,101661.56
2017-10-27T22:17:16.266Z,101658.83
2017-10-27T22:19:43.870Z,101655.36
2017-10-27T22:22:11.507Z,101667.17
2017-10-27T22:24:39.108Z,101659.89
2017-10-27T22:27:07.169Z,101649.63
2017-10-27T22:29:34.761Z,101651.50
2017-10-27T22:32:02.351Z,101654.55
2017-10-27T22:34:29.982Z,101655.30
2017-10-27T22:36:57.629Z,101653.13
2017-10-27T22:39:25.569Z,101655.82
2017-10-27T22:41:53.160Z,101653.64
2017-10-27T22:44:20.741Z,101652.84
2017-10-27T22:46:51.413Z,101646.69
2017-10-27T22:49:19.055Z,101648.72
2017-10-27T22:51:46.704Z,101647.09
2017-10-27T22:54:14.621Z,101638.72
2017-10-27T22:56:42.253Z,101632.38
2017-10-27T22:59:09.876Z,101620.55
2017-10-27T23:01:37.821Z,101622.56
2017-10-27T23:04:05.448Z,101617.61
2017-10-27T23:06:33.032Z,101612.61
2017-10-27T23:09:00.637Z,101616.11
2017-10-27T23:11:28.258Z,101610.95
2017-10-27T23:13:55.838Z,101610.39
2017-10-27T23:16:23.467Z,101597.27
2017-10-27T23:18:51.049Z,101593.52
2017-10-27T23:21:18.636Z,101593.16
2017-10-27T23:23:46.247Z,101591.56
2017-10-27T23:26:13.840Z,101580.64
2017-10-27T23:28:41.804Z,101581.80
2017-10-27T23:31:09.406Z,101574.09
2017-10-27T23:33:36.985Z,101573.76
2017-10-27T23:36:04.622Z,101568.80
2017-10-27T23:38:32.206Z,101559.15
2017-10-27T23:40:59.845Z,101562.73
2017-10-27T23:43:27.441Z,101566.01
2017-10-27T23:45:55.029Z,101555.48
2017-10-27T23:48:22.910Z,101548.20
2017-10-27T23:50:50.489Z,101560.67
2017-10-27T23:53:18.135Z,101553.88
2017-10-27T23:55:45.728Z,101555.14
2017-10-27T23:58:13.325Z,101555.57
